Time;durP1;ratioP1;P1;durP2;ratioP2;P2;SDS_P1;SDS_P2;PMS_P1;PMS_P2;Temp;Humidity;BMP_temperature;BMP_pressure;BME280_temperature;BME280_humidity;BME280_pressure;Samples;Min_cycle;Max_cycle;Signal;HPM_P1;HPM_P2
2023/04/02 00:01:52;;;;;;;1.13;0.90;;;;;;;11.17;87.39;99258.88;10375339;28;20259;-67
2023/04/02 00:07:29;;;;;;;3.72;0.90;;;;;;;11.13;87.04;99259.19;10394823;28;20048;-67
2023/04/02 00:12:32;;;;;;;0.75;0.60;;;;;;;11.12;86.67;99268.19;10386573;28;20056;-66
2023/04/02 00:17:33;;;;;;;0.90;0.65;;;;;;;11.08;86.00;99276.59;10392075;28;20103;-65
2023/04/02 00:22:42;;;;;;;1.20;0.65;;;;;;;11.12;86.40;99283.31;10391372;28;20921;-68
2023/04/02 00:27:44;;;;;;;1.10;0.80;;;;;;;11.03;86.37;99278.88;10395606;28;20650;-66
2023/04/02 00:32:46;;;;;;;1.90;0.85;;;;;;;11.05;86.36;99293.75;10397647;28;20136;-66
2023/04/02 00:37:48;;;;;;;1.65;0.35;;;;;;;10.92;86.69;99288.75;10394724;28;20052;-68
2023/04/02 00:42:53;;;;;;;1.15;0.70;;;;;;;10.91;87.06;99288.91;10376894;28;20549;-67
2023/04/02 00:47:57;;;;;;;2.28;0.57;;;;;;;11.06;86.58;99308.72;10374359;28;20154;-67
2023/04/02 00:53:08;;;;;;;1.27;0.93;;;;;;;10.98;87.24;99303.31;10391531;28;20044;-67
2023/04/02 00:58:24;;;;;;;1.38;1.00;;;;;;;10.94;87.57;99313.44;10393794;28;20136;-68
2023/04/02 01:03:34;;;;;;;1.23;1.13;;;;;;;10.88;87.37;99303.34;10400858;28;20045;-67
2023/04/02 01:09:08;;;;;;;1.27;1.17;;;;;;;10.94;87.90;99317.91;10403235;28;20784;-68
2023/04/02 01:14:28;;;;;;;1.60;1.25;;;;;;;10.92;87.35;99315.38;10397852;28;20166;-67
2023/04/02 01:19:51;;;;;;;2.55;1.10;;;;;;;10.98;87.06;99319.28;10398216;28;20090;-67
2023/04/02 01:24:57;;;;;;;1.95;1.10;;;;;;;10.85;86.54;99330.28;10400142;28;20154;-68
2023/04/02 01:30:04;;;;;;;3.28;1.52;;;;;;;10.87;87.13;99327.47;10405563;28;20056;-66
2023/04/02 01:35:07;;;;;;;2.17;1.40;;;;;;;10.79;87.71;99331.72;10399345;28;20723;-67
2023/04/02 01:40:20;;;;;;;2.47;1.67;;;;;;;10.84;87.61;99341.94;10400616;28;20045;-66
2023/04/02 01:45:23;;;;;;;2.22;2.08;;;;;;;10.79;87.55;99349.50;10387423;28;20072;-67
2023/04/02 01:50:35;;;;;;;2.33;2.13;;;;;;;10.68;88.49;99352.38;10400052;28;20164;-67
2023/04/02 01:55:45;;;;;;;2.72;2.42;;;;;;;10.72;88.85;99367.03;10394142;28;20700;-67
2023/04/02 02:00:55;;;;;;;4.43;2.40;;;;;;;10.73;88.85;99371.38;10390682;28;20597;-67
2023/04/02 02:05:58;;;;;;;2.92;2.63;;;;;;;10.63;88.93;99366.13;10400541;28;20053;-68
2023/04/02 02:11:01;;;;;;;2.20;2.00;;;;;;;10.60;88.92;99375.22;10399797;28;20057;-66
2023/04/02 02:16:03;;;;;;;2.35;2.15;;;;;;;10.77;88.84;99381.59;10400941;28;20104;-66
2023/04/02 02:21:09;;;;;;;2.63;2.42;;;;;;;10.75;89.05;99393.38;10397141;28;20256;-66
2023/04/02 02:26:12;;;;;;;3.20;2.50;;;;;;;10.62;88.79;99372.41;10400440;28;20059;-65
2023/04/02 02:31:21;;;;;;;4.68;2.40;;;;;;;10.56;88.73;99379.16;10396256;28;20056;-66
2023/04/02 02:36:32;;;;;;;5.38;2.60;;;;;;;10.70;88.40;99400.97;10366104;28;20044;-65
2023/04/02 02:41:43;;;;;;;4.47;2.72;;;;;;;10.74;88.58;99413.81;10391023;28;20680;-66
2023/04/02 02:46:51;;;;;;;3.22;2.83;;;;;;;10.77;88.45;99420.69;10397786;28;20049;-66
2023/04/02 02:52:07;;;;;;;2.92;2.47;;;;;;;10.78;88.66;99422.38;10395461;28;20560;-66
2023/04/02 02:57:16;;;;;;;3.05;2.65;;;;;;;10.77;88.36;99423.34;10396306;28;20049;-66
2023/04/02 03:02:18;;;;;;;3.00;2.80;;;;;;;10.64;88.41;99422.84;10395334;28;20045;-65
2023/04/02 03:07:24;;;;;;;5.05;3.13;;;;;;;10.74;88.81;99439.63;10396627;28;20549;-66
2023/04/02 03:12:38;;;;;;;3.65;2.60;;;;;;;10.76;88.43;99448.28;10394743;28;20067;-66
2023/04/02 03:17:47;;;;;;;6.15;3.55;;;;;;;10.67;88.14;99451.81;10402291;28;20142;-66
2023/04/02 03:23:00;;;;;;;4.18;2.45;;;;;;;10.69;88.09;99442.72;10396922;28;20422;-66
2023/04/02 03:28:06;;;;;;;2.97;2.70;;;;;;;10.72;88.32;99452.22;10397066;28;20049;-67
2023/04/02 03:33:14;;;;;;;3.97;2.90;;;;;;;10.75;87.75;99467.94;10398526;28;20057;-66
2023/04/02 03:38:19;;;;;;;3.00;2.70;;;;;;;10.85;87.57;99483.84;10393474;28;20055;-68
2023/04/02 03:43:30;;;;;;;2.72;2.53;;;;;;;10.90;87.22;99495.75;10387342;28;20061;-66
2023/04/02 03:48:45;;;;;;;2.83;2.63;;;;;;;10.92;87.30;99501.78;10396615;28;20040;-66
2023/04/02 03:53:48;;;;;;;3.10;2.90;;;;;;;10.98;87.37;99499.53;10397179;28;20064;-66
2023/04/02 03:59:00;;;;;;;4.35;2.78;;;;;;;10.98;86.98;99516.34;10391271;28;20060;-66
2023/04/02 04:04:09;;;;;;;2.58;2.38;;;;;;;11.00;87.04;99529.50;10402937;28;20064;-66
2023/04/02 04:09:21;;;;;;;3.08;2.80;;;;;;;10.91;86.94;99509.91;10394305;28;20049;-66
2023/04/02 04:14:33;;;;;;;4.07;2.88;;;;;;;11.05;86.36;99537.91;10391562;28;20040;-67
2023/04/02 04:19:47;;;;;;;2.83;2.42;;;;;;;10.96;86.79;99539.63;10391816;28;20053;-67
2023/04/02 04:24:48;;;;;;;4.03;2.95;;;;;;;10.94;86.51;99526.44;10405531;28;20839;-67
2023/04/02 04:30:17;;;;;;;4.00;3.10;;;;;;;11.03;86.40;99551.34;10397184;28;20186;-67
2023/04/02 04:35:27;;;;;;;4.63;2.85;;;;;;;11.04;86.83;99562.88;10399197;28;20418;-67
2023/04/02 04:40:36;;;;;;;3.63;2.72;;;;;;;10.99;87.01;99557.97;10403259;28;20498;-68
2023/04/02 04:45:44;;;;;;;3.13;2.83;;;;;;;11.11;85.92;99571.97;10399125;28;20746;-67
2023/04/02 04:50:49;;;;;;;3.15;2.58;;;;;;;11.09;86.23;99585.44;10400915;28;20522;-67
2023/04/02 04:56:09;;;;;;;;;;;;;;;11.07;86.38;99599.88;10400121;28;20047;-67
2023/04/02 05:01:26;;;;;;;4.45;3.28;;;;;;;11.06;85.67;99619.47;10394193;28;19926;-67
2023/04/02 05:06:39;;;;;;;3.55;3.25;;;;;;;11.05;86.07;99615.13;10371632;28;20575;-66
2023/04/02 05:11:49;;;;;;;4.07;3.67;;;;;;;11.02;86.63;99631.41;10400137;28;20068;-66
2023/04/02 05:17:07;;;;;;;4.10;3.70;;;;;;;10.98;85.88;99622.84;10396930;28;20173;-66
2023/04/02 05:22:31;;;;;;;3.70;3.40;;;;;;;11.08;86.21;99633.50;10392774;28;20040;-66
2023/04/02 05:27:40;;;;;;;5.00;3.97;;;;;;;11.09;86.46;99648.50;10391783;28;20052;-64
2023/04/02 05:32:49;;;;;;;4.88;3.65;;;;;;;11.05;86.74;99649.75;10394596;28;20128;-67
2023/04/02 05:37:51;;;;;;;3.92;3.45;;;;;;;11.08;86.91;99647.66;10399588;28;20056;-67
2023/04/02 05:42:54;;;;;;;4.35;3.95;;;;;;;11.12;87.52;99664.19;10402475;28;20079;-67
2023/04/02 05:48:01;;;;;;;5.90;3.83;;;;;;;11.23;87.96;99677.38;10400537;28;20556;-67
2023/04/02 05:53:13;;;;;;;3.90;3.50;;;;;;;11.27;88.52;99684.09;10386118;28;20053;-67
2023/04/02 05:58:22;;;;;;;3.63;3.28;;;;;;;11.20;88.87;99680.31;10405837;28;20602;-67
2023/04/02 06:03:55;;;;;;;3.90;3.50;;;;;;;11.35;89.29;99698.53;10387352;28;20055;-67
2023/04/02 06:09:02;;;;;;;4.75;4.20;;;;;;;11.22;89.18;99686.34;10366778;28;20053;-67
2023/04/02 06:14:04;;;;;;;5.22;4.68;;;;;;;11.29;88.78;99705.28;10399093;28;20096;-66
2023/04/02 06:19:14;;;;;;;3.95;3.65;;;;;;;11.35;89.29;99736.69;10407024;28;20633;-67
2023/04/02 06:24:21;;;;;;;1.45;1.20;;;;;;;11.12;85.11;99744.97;10406928;28;20144;-66
2023/04/02 06:29:37;;;;;;;0.40;0.20;;;;;;;10.83;83.08;99758.22;10404485;28;20051;-66
2023/04/02 06:34:41;;;;;;;0.40;0.20;;;;;;;10.68;81.27;99748.97;10412417;28;20060;-66
2023/04/02 06:39:42;;;;;;;0.32;0.10;;;;;;;10.50;82.92;99768.22;10395371;28;20055;-66
2023/04/02 06:44:45;;;;;;;0.38;0.10;;;;;;;10.60;82.68;99797.56;10394602;28;20195;-65
2023/04/02 06:50:02;;;;;;;0.17;0.10;;;;;;;10.52;82.70;99795.53;10402079;28;20049;-66
2023/04/02 06:55:35;;;;;;;1.25;0.30;;;;;;;10.54;83.10;99822.88;10391022;28;20655;-64
2023/04/02 07:00:41;;;;;;;0.52;0.25;;;;;;;10.60;82.60;99840.97;10387453;28;20676;-65
2023/04/02 07:05:44;;;;;;;1.48;0.22;;;;;;;10.35;82.84;99838.75;10386178;28;20053;-65
2023/04/02 07:10:46;;;;;;;0.65;0.20;;;;;;;10.52;83.22;99871.88;10389738;28;20053;-64
2023/04/02 07:15:51;;;;;;;0.20;0.20;;;;;;;10.48;82.09;99866.00;10396273;28;20053;-64
2023/04/02 07:20:54;;;;;;;0.75;0.20;;;;;;;10.56;80.51;99894.59;10392516;28;20440;-65
2023/04/02 07:25:58;;;;;;;0.50;0.35;;;;;;;10.58;80.98;99912.13;10391363;28;20057;-65
2023/04/02 07:31:00;;;;;;;0.52;0.25;;;;;;;10.46;80.98;99909.66;10393183;28;20489;-65
2023/04/02 07:36:02;;;;;;;1.58;0.20;;;;;;;10.42;79.78;99933.88;10389693;28;20844;-65
2023/04/02 07:41:05;;;;;;;1.42;0.30;;;;;;;10.35;78.82;99939.84;10392683;28;20119;-65
2023/04/02 07:46:09;;;;;;;0.17;0.10;;;;;;;10.37;79.20;99954.72;10391141;28;20059;-65
2023/04/02 07:51:20;;;;;;;0.73;0.33;;;;;;;10.16;78.98;99944.00;10391002;28;20128;-65
2023/04/02 07:56:23;;;;;;;1.52;0.45;;;;;;;10.23;78.36;99979.78;10390128;28;20089;-64
2023/04/02 08:01:26;;;;;;;1.40;0.10;;;;;;;9.89;78.45;99981.72;10384866;28;20127;-66
2023/04/02 08:06:28;;;;;;;1.20;0.10;;;;;;;9.92;77.70;99992.09;10387050;28;20151;-64
2023/04/02 08:11:30;;;;;;;0.47;0.15;;;;;;;9.93;77.70;100008.91;10390281;28;20545;-68
2023/04/02 08:16:48;;;;;;;0.28;0.17;;;;;;;9.73;77.18;100019.34;10391626;28;20052;-65
2023/04/02 08:21:50;;;;;;;1.13;0.38;;;;;;;9.81;77.30;100035.50;10387161;28;20398;-66
2023/04/02 08:26:52;;;;;;;0.50;0.20;;;;;;;9.76;77.33;100029.72;10393337;28;20098;-65
2023/04/02 08:31:54;;;;;;;0.68;0.30;;;;;;;9.84;77.09;100058.34;10373640;28;20540;-65
2023/04/02 08:36:57;;;;;;;1.33;0.93;;;;;;;9.80;77.24;100052.41;10387945;28;20045;-64
2023/04/02 08:42:20;;;;;;;0.40;0.20;;;;;;;10.00;76.77;100069.44;10391168;28;20636;-65
2023/04/02 08:47:25;;;;;;;0.43;0.30;;;;;;;9.94;77.20;100074.41;10387439;28;20465;-64
2023/04/02 08:52:31;;;;;;;1.33;0.52;;;;;;;9.97;76.54;100098.06;10396076;28;20059;-64
2023/04/02 08:57:47;;;;;;;1.65;0.40;;;;;;;9.87;78.16;100104.13;10383817;28;20554;-63
2023/04/02 09:02:59;;;;;;;0.40;0.20;;;;;;;9.97;77.69;100122.00;10383319;28;20268;-63
2023/04/02 09:08:04;;;;;;;0.90;0.40;;;;;;;9.92;78.13;100109.09;10387913;28;20048;-63
2023/04/02 09:13:16;;;;;;;0.68;0.55;;;;;;;10.21;77.48;100137.84;10379203;28;20045;-63
2023/04/02 09:18:18;;;;;;;0.82;0.52;;;;;;;10.27;76.88;100146.16;10376024;28;20752;-67
2023/04/02 09:23:23;;;;;;;1.45;0.35;;;;;;;10.29;76.53;100151.34;10380679;28;20049;-67
2023/04/02 09:28:25;;;;;;;0.68;0.40;;;;;;;10.26;75.95;100155.09;10384952;28;20049;-67
2023/04/02 09:33:49;;;;;;;0.40;0.30;;;;;;;10.38;72.97;100184.38;10386253;28;20105;-65
2023/04/02 09:39:10;;;;;;;0.50;0.40;;;;;;;10.30;72.94;100177.00;10383449;28;20060;-67
2023/04/02 09:44:16;;;;;;;0.77;0.52;;;;;;;10.51;71.75;100200.19;10383679;28;20713;-67
2023/04/02 09:49:21;;;;;;;0.70;0.52;;;;;;;10.37;71.50;100210.16;10376625;28;20724;-67
2023/04/02 09:54:25;;;;;;;1.35;0.70;;;;;;;10.39;70.89;100213.53;10373882;28;20123;-68
2023/04/02 09:59:27;;;;;;;0.80;0.80;;;;;;;10.52;71.28;100229.34;10382762;28;20175;-67
2023/04/02 10:04:46;;;;;;;0.70;0.60;;;;;;;10.56;71.03;100233.44;10379822;28;20846;-67
2023/04/02 10:10:00;;;;;;;1.05;0.63;;;;;;;10.79;69.58;100252.03;10379275;28;20056;-68
2023/04/02 10:15:03;;;;;;;0.93;0.82;;;;;;;10.85;68.96;100256.84;10372590;28;20518;-67
2023/04/02 10:20:16;;;;;;;0.93;0.82;;;;;;;10.77;68.55;100267.28;10382421;28;20053;-67
2023/04/02 10:25:23;;;;;;;0.93;0.65;;;;;;;10.69;67.85;100259.06;10389536;28;20053;-67
2023/04/02 10:30:43;;;;;;;0.63;0.60;;;;;;;10.77;67.64;100281.44;10390078;28;20060;-67
2023/04/02 10:36:04;;;;;;;0.80;0.60;;;;;;;10.57;66.88;100301.69;10390307;28;20125;-67
2023/04/02 10:41:27;;;;;;;0.85;0.50;;;;;;;10.49;66.79;100309.41;10387295;28;20056;-68
2023/04/02 10:46:42;;;;;;;0.50;0.47;;;;;;;10.38;65.91;100312.94;10385011;28;20196;-68
2023/04/02 10:52:09;;;;;;;1.38;0.90;;;;;;;10.57;66.25;100317.66;10384834;28;20085;-68
2023/04/02 10:57:15;;;;;;;1.13;0.77;;;;;;;10.53;66.03;100300.22;10391756;28;20044;-68
2023/04/02 11:02:30;;;;;;;1.73;0.50;;;;;;;10.48;64.97;100318.41;10391616;28;20049;-66
2023/04/02 11:07:44;;;;;;;0.50;0.40;;;;;;;10.57;64.11;100332.78;10381574;28;20050;-70
2023/04/02 11:12:54;;;;;;;0.73;0.60;;;;;;;10.50;64.75;100337.75;10389609;28;20067;-65
2023/04/02 11:17:56;;;;;;;1.10;0.60;;;;;;;10.47;64.03;100337.97;10390455;28;20175;-69
2023/04/02 11:23:29;;;;;;;0.88;0.80;;;;;;;10.74;63.06;100366.88;10391915;28;20701;-68
2023/04/02 11:28:31;;;;;;;0.82;0.60;;;;;;;10.58;62.64;100361.97;10385293;28;20056;-68
2023/04/02 11:33:40;;;;;;;1.20;1.10;;;;;;;10.54;63.65;100365.81;10380068;28;20482;-65
2023/04/02 11:38:49;;;;;;;1.00;0.90;;;;;;;10.59;64.17;100392.91;10384097;28;20048;-65
2023/04/02 11:43:59;;;;;;;2.05;1.30;;;;;;;10.60;63.90;100394.63;10384782;28;20048;-68
2023/04/02 11:49:36;;;;;;;2.00;1.23;;;;;;;10.63;63.44;100405.97;10386519;28;20053;-70
2023/04/02 11:54:39;;;;;;;1.10;1.00;;;;;;;10.67;64.41;100413.59;10387084;28;20412;-78
2023/04/02 12:00:17;;;;;;;2.20;1.50;;;;;;;10.58;63.28;100430.28;10394320;28;20518;-72
2023/04/02 12:05:35;;;;;;;1.50;1.00;;;;;;;10.58;62.78;100440.94;10384581;28;20052;-64
2023/04/02 12:10:53;;;;;;;1.05;0.95;;;;;;;10.63;62.77;100443.25;10385679;28;20057;-70
2023/04/02 12:15:57;;;;;;;1.77;1.10;;;;;;;10.54;61.65;100456.31;10389773;28;20045;-67
2023/04/02 12:20:58;;;;;;;1.45;1.00;;;;;;;10.38;61.43;100466.44;10398629;28;20056;-67
2023/04/02 12:26:02;;;;;;;1.20;1.10;;;;;;;10.45;65.68;100473.00;10382708;28;20106;-62
2023/04/02 12:31:06;;;;;;;1.27;1.17;;;;;;;10.63;61.53;100483.19;10385904;28;20359;-60
2023/04/02 12:36:13;;;;;;;;;;;;;;;10.63;59.93;100480.50;10384489;28;20057;-67
2023/04/02 12:41:23;;;;;;;1.80;1.27;;;;;;;10.51;60.97;100493.81;10377846;28;20929;-67
2023/04/02 12:46:26;;;;;;;2.25;1.60;;;;;;;10.47;60.55;100503.00;10366008;28;22240;-68
2023/04/02 12:51:28;;;;;;;1.30;1.20;;;;;;;10.38;61.19;100514.34;10379493;28;20048;-68
2023/04/02 12:56:30;;;;;;;1.80;1.50;;;;;;;10.25;60.96;100525.88;10383088;28;20076;-64
2023/04/02 13:01:32;;;;;;;1.77;1.60;;;;;;;10.13;61.56;100526.78;10397233;28;20055;-67
2023/04/02 13:06:35;;;;;;;4.45;1.38;;;;;;;9.95;62.58;100523.66;10390181;28;20201;-68
2023/04/02 13:11:39;;;;;;;2.05;1.70;;;;;;;9.87;62.87;100531.38;10393947;28;20085;-68
2023/04/02 13:16:41;;;;;;;2.42;1.70;;;;;;;9.79;62.84;100545.22;10383961;28;20053;-68
2023/04/02 13:21:45;;;;;;;2.53;2.33;;;;;;;9.77;62.74;100549.78;10388984;28;20053;-64
2023/04/02 13:26:48;;;;;;;2.13;1.90;;;;;;;9.81;62.11;100548.59;10393814;28;20704;-67
2023/04/02 13:31:52;;;;;;;2.90;2.40;;;;;;;9.78;61.49;100558.63;10400066;28;20430;-67
2023/04/02 13:36:54;;;;;;;1.93;1.70;;;;;;;9.79;60.93;100570.94;10389181;28;21043;-66
2023/04/02 13:42:01;;;;;;;2.95;2.53;;;;;;;9.72;61.25;100570.53;10393629;28;20113;-67
2023/04/02 13:47:02;;;;;;;2.30;2.10;;;;;;;9.54;61.68;100565.56;10389071;28;20866;-68
2023/04/02 13:52:12;;;;;;;2.60;2.40;;;;;;;9.73;61.50;100578.41;10392587;28;20533;-68
2023/04/02 13:57:14;;;;;;;3.10;2.80;;;;;;;9.62;60.25;100588.09;10386665;28;20064;-67
2023/04/02 14:02:23;;;;;;;8.02;6.13;;;;;;;9.48;63.19;100592.59;10388898;28;20571;-54
2023/04/02 14:07:49;;;;;;;4.35;3.55;;;;;;;9.72;61.14;100597.97;10380126;28;20624;-66
2023/04/02 14:13:21;;;;;;;3.50;3.20;;;;;;;9.64;60.88;100615.44;10379919;28;20704;-67
2023/04/02 14:18:42;;;;;;;4.95;3.58;;;;;;;9.48;59.49;100611.19;10378206;28;20049;-66
2023/04/02 14:23:53;;;;;;;4.10;3.70;;;;;;;9.51;59.93;100628.72;10384367;28;20542;-68
2023/04/02 14:29:09;;;;;;;4.05;3.67;;;;;;;9.59;60.06;100636.16;10384442;28;20057;-67
2023/04/02 14:34:39;;;;;;;4.68;4.05;;;;;;;9.41;59.99;100641.78;10388243;28;20045;-67
2023/04/02 14:39:46;;;;;;;4.68;2.78;;;;;;;9.34;59.29;100643.19;10390247;28;20163;-65
2023/04/02 14:45:09;;;;;;;4.53;2.92;;;;;;;9.12;58.77;100641.16;10392013;28;20112;-68
2023/04/02 14:50:32;;;;;;;3.03;2.72;;;;;;;9.22;58.83;100662.63;10387213;28;20040;-67
2023/04/02 14:55:47;;;;;;;2.75;2.53;;;;;;;9.28;59.38;100672.84;10389603;28;20045;-66
2023/04/02 15:01:01;;;;;;;3.67;3.38;;;;;;;9.13;58.87;100680.91;10387591;28;20445;-66
2023/04/02 15:06:09;;;;;;;3.27;2.97;;;;;;;9.16;58.74;100691.31;10391725;28;20108;-65
2023/04/02 15:11:16;;;;;;;4.93;3.60;;;;;;;9.11;58.95;100701.41;10385245;28;20119;-67
2023/04/02 15:16:24;;;;;;;4.93;3.72;;;;;;;9.15;58.99;100705.53;10387915;28;20051;-67
2023/04/02 15:21:44;;;;;;;4.72;3.25;;;;;;;9.02;59.91;100717.94;10388170;28;20127;-65
2023/04/02 15:27:31;;;;;;;4.75;3.90;;;;;;;8.98;59.31;100703.19;10393474;28;20060;-65
2023/04/02 15:32:33;;;;;;;4.38;3.85;;;;;;;9.04;59.16;100718.69;10376923;28;20036;-64
2023/04/02 15:37:40;;;;;;;4.40;4.03;;;;;;;9.05;59.06;100720.38;10372884;28;20520;-66
2023/04/02 15:42:52;;;;;;;5.15;3.92;;;;;;;8.90;57.70;100726.72;10393157;28;20193;-66
2023/04/02 15:48:13;;;;;;;5.22;3.50;;;;;;;9.11;59.46;100735.06;10392677;28;20068;-65
2023/04/02 15:53:42;;;;;;;3.47;3.25;;;;;;;9.02;57.55;100747.13;10384956;28;20052;-65
2023/04/02 15:59:07;;;;;;;3.42;3.13;;;;;;;9.05;58.00;100746.09;10391393;28;20128;-65
2023/04/02 16:04:50;;;;;;;4.35;3.95;;;;;;;9.04;56.97;100758.53;10393013;28;20534;-66
2023/04/02 16:10:09;;;;;;;3.55;3.25;;;;;;;8.87;57.00;100770.25;10313171;28;20837;-66
2023/04/02 16:15:29;;;;;;;4.75;3.58;;;;;;;8.77;55.81;100764.69;10380179;28;20048;-66
2023/04/02 16:20:35;;;;;;;4.18;3.88;;;;;;;8.72;56.26;100785.38;10384208;28;20848;-66
2023/04/02 16:26:00;;;;;;;3.50;3.20;;;;;;;8.49;56.47;100763.78;10385942;28;20076;-66
2023/04/02 16:31:35;;;;;;;3.40;3.10;;;;;;;8.69;55.19;100793.50;10381652;28;20045;-65
2023/04/02 16:36:59;;;;;;;4.93;4.43;;;;;;;8.67;55.89;100798.09;10383669;28;20052;-67
2023/04/02 16:42:15;;;;;;;4.72;4.35;;;;;;;8.57;55.31;100815.53;10389799;28;20256;-67
2023/04/02 16:47:17;;;;;;;4.45;3.60;;;;;;;8.54;55.08;100827.22;10386069;28;20060;-64
2023/04/02 16:52:31;;;;;;;3.65;3.03;;;;;;;8.30;55.41;100840.16;10388713;28;20080;-65
2023/04/02 16:57:46;;;;;;;3.53;3.33;;;;;;;8.35;55.24;100851.34;10385069;28;20822;-65
2023/04/02 17:03:04;;;;;;;4.18;3.88;;;;;;;8.41;55.08;100858.06;10386096;28;20167;-64
2023/04/02 17:08:20;;;;;;;3.90;3.30;;;;;;;8.17;55.31;100855.97;10383633;28;20057;-65
2023/04/02 17:13:41;;;;;;;4.57;4.18;;;;;;;8.27;54.19;100880.13;10383778;28;20521;-65
2023/04/02 17:18:44;;;;;;;3.85;3.40;;;;;;;8.10;54.51;100866.09;10382115;28;20113;-65
2023/04/02 17:24:13;;;;;;;3.40;3.07;;;;;;;8.10;54.74;100903.22;10387603;28;20083;-65
2023/04/02 17:29:28;;;;;;;3.45;3.15;;;;;;;8.14;54.69;100911.84;10378104;28;20240;-64
2023/04/02 17:34:30;;;;;;;3.72;3.42;;;;;;;8.10;53.43;100919.13;10380655;28;20478;-65
2023/04/02 17:39:39;;;;;;;2.67;2.47;;;;;;;7.94;53.30;100923.63;10384387;28;20068;-64
2023/04/02 17:44:51;;;;;;;2.88;2.67;;;;;;;8.00;53.20;100940.97;10389740;28;20075;-66
2023/04/02 17:50:11;;;;;;;3.10;2.80;;;;;;;7.87;53.98;100948.81;10392802;28;20057;-65
2023/04/02 17:55:54;;;;;;;4.00;3.38;;;;;;;7.86;54.03;100957.69;10393812;28;20059;-64
2023/04/02 18:01:04;;;;;;;4.35;3.30;;;;;;;7.93;54.22;100967.00;10384961;28;20468;-65
2023/04/02 18:06:18;;;;;;;4.10;3.70;;;;;;;7.94;54.17;100977.53;10390876;28;20049;-64
2023/04/02 18:11:36;;;;;;;4.00;3.28;;;;;;;7.86;53.88;100984.19;10383949;28;20136;-64
2023/04/02 18:16:48;;;;;;;4.10;3.65;;;;;;;7.91;54.64;100990.06;10373583;28;20048;-64
2023/04/02 18:21:56;;;;;;;3.60;3.22;;;;;;;7.78;55.01;100993.44;10388868;28;20053;-64
2023/04/02 18:27:01;;;;;;;2.92;2.63;;;;;;;7.84;54.23;101002.84;10386319;28;20509;-64
2023/04/02 18:32:21;;;;;;;3.35;3.00;;;;;;;7.85;53.77;101011.63;10385308;28;20060;-65
2023/04/02 18:37:29;;;;;;;3.50;2.65;;;;;;;7.79;54.03;101032.25;10390745;28;20061;-65
2023/04/02 18:42:46;;;;;;;2.78;2.17;;;;;;;7.82;54.23;101030.38;10394716;28;20674;-66
2023/04/02 18:48:18;;;;;;;2.78;2.55;;;;;;;7.73;54.94;101016.72;10388573;28;21761;-67
2023/04/02 18:53:25;;;;;;;3.05;2.75;;;;;;;7.79;54.05;101055.25;10392408;28;20081;-66
2023/04/02 18:58:45;;;;;;;3.05;2.42;;;;;;;7.78;54.65;101058.84;10388722;28;20040;-67
2023/04/02 19:04:01;;;;;;;3.15;2.22;;;;;;;7.70;54.43;101066.34;10394555;28;20165;-64
2023/04/02 19:09:26;;;;;;;2.83;2.20;;;;;;;7.64;53.89;101064.06;10385163;28;20056;-64
2023/04/02 19:14:28;;;;;;;2.90;2.10;;;;;;;7.74;54.40;101082.00;10386796;28;20073;-63
2023/04/02 19:19:40;;;;;;;3.20;2.45;;;;;;;7.72;54.31;101081.25;10401074;28;20375;-65
2023/04/02 19:25:03;;;;;;;2.63;2.30;;;;;;;7.69;54.17;101089.38;10390177;28;20088;-67
2023/04/02 19:30:50;;;;;;;3.10;2.35;;;;;;;7.62;54.15;101090.63;10385151;28;20067;-64
2023/04/02 19:36:05;;;;;;;3.33;1.88;;;;;;;7.51;54.57;101072.69;10387960;28;20118;-65
2023/04/02 19:41:06;;;;;;;;;;;;;;;7.65;52.51;101108.16;10346590;28;20505;-68
2023/04/02 19:46:08;;;;;;;2.60;1.60;;;;;;;7.57;53.61;101098.84;10329735;28;19924;-65
2023/04/02 19:51:10;;;;;;;1.70;1.30;;;;;;;7.56;52.93;101097.13;10352308;28;20048;-65
2023/04/02 19:56:12;;;;;;;2.17;1.45;;;;;;;7.50;51.71;101104.56;10350829;28;20074;-65
2023/04/02 20:01:13;;;;;;;2.85;1.88;;;;;;;7.39;52.91;101076.84;10364412;28;20068;-69
2023/04/02 20:06:15;;;;;;;4.43;1.65;;;;;;;7.61;53.45;101118.94;10369875;28;20523;-64
2023/04/02 20:11:17;;;;;;;2.60;1.58;;;;;;;7.61;52.79;101118.94;10368052;28;20048;-65
2023/04/02 20:16:20;;;;;;;2.50;1.45;;;;;;;7.61;52.45;101118.06;10367107;28;20065;-67
2023/04/02 20:21:21;;;;;;;3.35;1.50;;;;;;;7.44;52.60;101127.78;10381534;28;20061;-65
2023/04/02 20:26:23;;;;;;;3.05;1.60;;;;;;;7.42;52.74;101132.31;10363914;28;20147;-63
2023/04/02 20:31:25;;;;;;;2.63;1.52;;;;;;;7.29;53.25;101144.50;10376618;28;20744;-64
2023/04/02 20:36:27;;;;;;;3.33;2.03;;;;;;;7.22;53.62;101143.09;10374671;28;20068;-63
2023/04/02 20:41:28;;;;;;;3.38;1.80;;;;;;;7.14;54.42;101154.09;10378130;28;20245;-63
2023/04/02 20:46:30;;;;;;;4.07;1.98;;;;;;;7.17;54.88;101172.47;10380041;28;20139;-65
2023/04/02 20:51:33;;;;;;;3.05;1.42;;;;;;;7.19;54.66;101175.91;10383726;28;20720;-65
2023/04/02 20:56:34;;;;;;;2.17;1.75;;;;;;;7.25;54.78;101177.34;10381698;28;20759;-65
2023/04/02 21:01:38;;;;;;;2.85;1.67;;;;;;;7.17;54.35;101167.16;10385482;28;20044;-64
2023/04/02 21:06:40;;;;;;;2.43;1.30;;;;;;;7.17;53.30;101172.47;10382430;28;20056;-66
2023/04/02 21:11:43;;;;;;;2.05;1.13;;;;;;;7.26;53.46;101181.72;10384183;28;21445;-63
2023/04/02 21:16:44;;;;;;;2.45;1.35;;;;;;;7.34;53.60;101195.44;10385114;28;21268;-62
2023/04/02 21:21:46;;;;;;;2.00;1.30;;;;;;;7.39;53.55;101187.25;10394577;28;20059;-64
2023/04/02 21:26:49;;;;;;;3.05;1.50;;;;;;;7.35;53.39;101202.44;10388007;28;20060;-64
2023/04/02 21:31:51;;;;;;;2.45;1.30;;;;;;;7.39;53.80;101204.00;10394706;28;20122;-63
2023/04/02 21:36:52;;;;;;;1.83;1.30;;;;;;;7.35;53.51;101206.88;10394212;28;20060;-63
2023/04/02 21:41:54;;;;;;;3.58;1.50;;;;;;;7.40;53.59;101211.00;10388349;28;20075;-65
2023/04/02 21:46:56;;;;;;;2.13;1.88;;;;;;;7.37;53.88;101202.34;10391790;28;20132;-65
2023/04/02 21:51:58;;;;;;;3.08;1.73;;;;;;;7.38;53.36;101202.28;10381252;28;20516;-65
2023/04/02 21:56:59;;;;;;;2.55;1.40;;;;;;;7.37;53.73;101202.34;10400115;28;20162;-65
2023/04/02 22:02:01;;;;;;;1.98;1.15;;;;;;;7.28;54.32;101201.06;10409010;28;20079;-64
2023/04/02 22:07:03;;;;;;;2.17;1.50;;;;;;;7.36;54.46;101213.91;10411068;28;20057;-65
2023/04/02 22:12:06;;;;;;;2.00;1.50;;;;;;;7.33;54.27;101214.91;10413035;28;20045;-65
2023/04/02 22:17:08;;;;;;;2.58;1.50;;;;;;;7.21;54.42;101203.16;10401277;28;20045;-65
2023/04/02 22:22:10;;;;;;;2.13;1.60;;;;;;;7.33;54.97;101208.78;10423961;28;20045;-66
2023/04/02 22:27:11;;;;;;;3.08;1.98;;;;;;;7.25;54.79;101198.53;10408883;28;20072;-66
2023/04/02 22:32:13;;;;;;;3.45;1.45;;;;;;;7.23;54.50;101197.78;10399482;28;20052;-67
2023/04/02 22:37:14;;;;;;;4.65;1.92;;;;;;;7.29;54.38;101213.34;10413064;28;20052;-67
2023/04/02 22:42:16;;;;;;;3.22;1.80;;;;;;;7.16;54.58;101196.38;10389551;28;20521;-66
2023/04/02 22:47:17;;;;;;;3.20;1.90;;;;;;;7.15;54.77;101190.22;10406353;28;20689;-65
2023/04/02 22:52:19;;;;;;;3.92;1.70;;;;;;;7.19;54.78;101201.50;10399387;28;20062;-65
2023/04/02 22:57:21;;;;;;;5.43;1.83;;;;;;;7.24;55.02;101199.50;10399923;28;20118;-64
2023/04/02 23:02:25;;;;;;;2.55;1.50;;;;;;;7.07;54.94;101193.28;10395274;28;20130;-65
2023/04/02 23:07:27;;;;;;;2.17;1.38;;;;;;;7.19;54.63;101212.09;10409512;28;20076;-64
2023/04/02 23:12:29;;;;;;;2.53;1.77;;;;;;;6.99;54.78;101184.84;10390691;28;20158;-65
2023/04/02 23:17:31;;;;;;;2.47;1.50;;;;;;;7.07;54.79;101200.34;10405962;28;20059;-64
2023/04/02 23:22:33;;;;;;;2.92;1.33;;;;;;;7.18;55.02;101216.56;10380492;28;20053;-65
2023/04/02 23:27:35;;;;;;;2.22;1.50;;;;;;;7.17;55.23;101213.97;10403982;28;20911;-65
2023/04/02 23:32:36;;;;;;;3.42;1.75;;;;;;;7.08;55.37;101202.91;10396190;28;20049;-65
2023/04/02 23:37:38;;;;;;;2.63;1.38;;;;;;;7.18;54.86;101215.72;10401222;28;20049;-65
2023/04/02 23:42:39;;;;;;;2.88;1.60;;;;;;;7.15;55.33;101205.28;10397695;28;20068;-65
2023/04/02 23:47:41;;;;;;;3.67;2.05;;;;;;;7.17;55.70;101208.69;10413725;28;20049;-64
2023/04/02 23:52:43;;;;;;;2.03;1.13;;;;;;;7.23;55.36;101213.66;10401529;28;20444;-64
2023/04/02 23:57:45;;;;;;;3.25;1.50;;;;;;;7.23;55.48;101214.50;10402506;28;20461;-65
